Time;durP1;ratioP1;P1;durP2;ratioP2;P2;SDS_P1;SDS_P2;PMS_P1;PMS_P2;Temp;Humidity;BMP_temperature;BMP_pressure;BME280_temperature;BME280_humidity;BME280_pressure;Samples;Min_cycle;Max_cycle;Signal;HPM_P1;HPM_P2
2021/04/04 00:00:48;;;;;;;50.95;48.22;;;23.30;99.90;;;;;;5093161;28;20028;-60
2021/04/04 00:03:16;;;;;;;49.10;46.67;;;23.20;99.90;;;;;;5093149;28;20032;-61
2021/04/04 00:05:43;;;;;;;48.35;45.97;;;23.00;99.90;;;;;;5093198;28;20384;-62
2021/04/04 00:08:10;;;;;;;47.55;45.25;;;23.30;99.90;;;;;;5093133;28;20419;-60
2021/04/04 00:10:38;;;;;;;46.45;44.25;;;23.40;99.90;;;;;;5092898;28;20024;-62
2021/04/04 00:13:05;;;;;;;46.70;44.70;;;23.50;99.90;;;;;;5092945;28;20103;-60
2021/04/04 00:15:32;;;;;;;46.20;43.85;;;23.50;99.90;;;;;;5092139;28;20121;-61
2021/04/04 00:18:00;;;;;;;43.83;41.63;;;23.50;99.90;;;;;;5095805;28;20023;-60
2021/04/04 00:20:27;;;;;;;42.90;40.92;;;23.60;99.90;;;;;;5096878;28;20043;-62
2021/04/04 00:22:54;;;;;;;37.95;36.13;;;23.80;99.90;;;;;;5096884;28;20047;-61
2021/04/04 00:25:22;;;;;;;35.63;34.13;;;24.00;99.90;;;;;;5097019;28;20027;-61
2021/04/04 00:27:49;;;;;;;33.30;31.70;;;24.30;99.90;;;;;;5096724;28;20391;-63
2021/04/04 00:30:19;;;;;;;27.92;26.83;;;24.60;99.90;;;;;;5096753;28;20070;-61
2021/04/04 00:32:47;;;;;;;;;;;24.50;99.90;;;;;;5097200;28;20111;-62
2021/04/04 00:35:20;;;;;;;26.45;25.45;;;24.40;99.90;;;;;;5096815;28;20268;-62
2021/04/04 00:37:50;;;;;;;25.75;24.65;;;24.60;99.90;;;;;;5096790;28;20020;-62
2021/04/04 00:40:30;;;;;;;25.05;23.90;;;24.50;99.90;;;;;;5096449;28;20067;-63
2021/04/04 00:42:57;;;;;;;26.60;25.40;;;24.80;99.90;;;;;;5096522;28;20024;-62
2021/04/04 00:45:27;;;;;;;21.40;20.50;;;25.20;99.90;;;;;;5095000;28;20487;-64
2021/04/04 00:47:55;;;;;;;19.13;18.42;;;25.30;99.90;;;;;;5096458;28;20093;-63
2021/04/04 00:50:35;;;;;;;18.65;17.90;;;25.40;99.90;;;;;;5096297;28;20440;-63
2021/04/04 00:53:04;;;;;;;18.17;17.50;;;25.70;99.90;;;;;;5097222;28;20457;-63
2021/04/04 00:55:31;;;;;;;16.85;16.13;;;26.00;99.90;;;;;;5096078;28;20026;-63
2021/04/04 00:57:59;;;;;;;14.82;14.10;;;26.30;99.90;;;;;;5096228;28;20012;-62
2021/04/04 01:00:29;;;;;;;12.00;11.60;;;26.40;99.90;;;;;;5094824;28;20039;-63
2021/04/04 01:02:57;;;;;;;11.10;10.70;;;26.30;99.90;;;;;;5095950;28;20024;-63
2021/04/04 01:05:36;;;;;;;10.90;10.50;;;26.30;99.90;;;;;;5095999;28;20024;-63
2021/04/04 01:08:05;;;;;;;9.40;9.00;;;26.50;99.90;;;;;;5095986;28;20111;-64
2021/04/04 01:10:36;;;;;;;9.18;8.40;;;26.70;99.90;;;;;;5095908;28;20099;-62
2021/04/04 01:13:40;;;;;;;11.18;8.38;;;26.60;99.90;;;;;;5095849;28;20477;-62
2021/04/04 01:16:14;;;;;;;7.80;7.30;;;26.60;99.90;;;;;;5095786;28;20107;-64
2021/04/04 01:18:57;;;;;;;6.70;6.47;;;26.60;99.90;;;;;;5095756;28;20032;-64
2021/04/04 01:21:49;;;;;;;7.10;6.80;;;26.70;99.90;;;;;;5095852;28;20016;-63
2021/04/04 01:24:53;;;;;;;6.97;6.65;;;26.80;99.90;;;;;;5096346;28;20057;-63
2021/04/04 01:27:32;;;;;;;6.57;6.28;;;27.10;99.90;;;;;;5095842;28;20016;-63
2021/04/04 01:30:00;;;;;;;6.40;6.00;;;27.30;99.90;;;;;;5095669;28;20154;-64
2021/04/04 01:32:28;;;;;;;6.45;6.00;;;27.00;99.90;;;;;;5095696;28;20054;-64
2021/04/04 01:34:56;;;;;;;6.72;6.32;;;26.80;99.90;;;;;;5095408;28;20028;-64
2021/04/04 01:37:24;;;;;;;4.50;4.30;;;27.10;99.90;;;;;;5095280;28;20472;-64
2021/04/04 01:39:56;;;;;;;4.20;3.90;;;27.30;99.90;;;;;;5093815;28;20066;-64
2021/04/04 01:42:24;;;;;;;5.72;5.30;;;27.60;99.90;;;;;;5095153;28;20028;-64
2021/04/04 01:44:53;;;;;;;5.05;4.70;;;27.80;99.90;;;;;;5093943;28;20054;-64
2021/04/04 01:47:21;;;;;;;5.05;4.85;;;28.00;99.90;;;;;;5095488;28;20077;-64
2021/04/04 01:49:52;;;;;;;5.78;5.57;;;28.20;99.90;;;;;;5094868;28;20085;-67
2021/04/04 01:52:21;;;;;;;4.20;4.00;;;28.20;99.90;;;;;;5094959;28;20023;-63
2021/04/04 01:54:49;;;;;;;4.38;4.07;;;28.00;99.90;;;;;;5095135;28;20026;-64
2021/04/04 01:57:18;;;;;;;7.60;7.30;;;28.10;99.90;;;;;;5095027;28;20020;-63
2021/04/04 01:59:46;;;;;;;7.00;6.60;;;28.30;99.90;;;;;;5094855;28;20093;-63
2021/04/04 02:02:14;;;;;;;6.20;6.00;;;28.30;99.90;;;;;;5094875;28;20503;-65
2021/04/04 02:04:43;;;;;;;6.00;5.80;;;28.50;99.90;;;;;;5094880;28;20108;-64
2021/04/04 02:07:14;;;;;;;6.25;5.95;;;28.70;99.90;;;;;;5094684;28;20032;-65
2021/04/04 02:09:42;;;;;;;6.15;5.85;;;28.40;99.90;;;;;;5094543;28;20036;-63
2021/04/04 02:12:11;;;;;;;6.53;6.22;;;28.10;99.90;;;;;;5094720;28;20052;-65
2021/04/04 02:14:41;;;;;;;5.82;5.63;;;28.50;99.90;;;;;;5094705;28;20025;-63
2021/04/04 02:17:08;;;;;;;;;;;28.80;99.90;;;;;;5095646;28;20024;-62
2021/04/04 02:19:37;;;;;;;6.60;6.15;;;28.80;99.90;;;;;;5094608;28;19911;-62
2021/04/04 02:22:05;;;;;;;6.20;6.00;;;28.90;99.90;;;;;;5094603;28;20035;-62
2021/04/04 02:24:33;;;;;;;6.30;6.00;;;29.10;99.90;;;;;;5094417;28;20084;-64
2021/04/04 02:27:01;;;;;;;7.38;7.13;;;29.20;99.90;;;;;;5094316;28;20533;-63
2021/04/04 02:29:28;;;;;;;6.35;6.15;;;29.40;99.90;;;;;;5094048;28;20166;-64
2021/04/04 02:32:01;;;;;;;7.20;6.90;;;29.50;99.50;;;;;;5092974;28;20020;-63
2021/04/04 02:34:50;;;;;;;6.40;6.10;;;29.40;99.20;;;;;;5093342;28;20024;-63
2021/04/04 02:37:17;;;;;;;6.00;5.80;;;29.40;99.40;;;;;;5094209;28;20020;-63
2021/04/04 02:40:02;;;;;;;6.18;5.97;;;29.40;98.30;;;;;;5091777;28;20067;-63
2021/04/04 02:42:31;;;;;;;6.07;5.78;;;29.50;97.40;;;;;;5094541;28;20023;-64
2021/04/04 02:45:01;;;;;;;5.77;5.50;;;29.70;97.60;;;;;;5094126;28;20020;-63
2021/04/04 02:47:40;;;;;;;5.50;5.20;;;29.80;97.80;;;;;;5093985;28;20035;-62
2021/04/04 02:50:10;;;;;;;5.10;4.90;;;29.90;97.70;;;;;;5093849;28;20389;-62
2021/04/04 02:52:42;;;;;;;5.05;4.85;;;29.80;98.10;;;;;;5095102;28;20020;-62
2021/04/04 02:55:11;;;;;;;5.53;5.28;;;30.20;97.40;;;;;;5094057;28;20103;-63
2021/04/04 02:57:39;;;;;;;6.20;5.80;;;29.70;97.40;;;;;;5094039;28;20027;-63
2021/04/04 03:00:09;;;;;;;6.18;5.88;;;29.90;99.90;;;;;;5093905;28;20389;-62
2021/04/04 03:02:40;;;;;;;6.10;5.80;;;30.10;99.90;;;;;;5093665;28;20617;-62
2021/04/04 03:05:11;;;;;;;5.10;4.72;;;30.00;99.90;;;;;;5092726;28;20036;-63
2021/04/04 03:07:44;;;;;;;6.13;5.70;;;29.90;99.90;;;;;;5092357;28;20032;-63
2021/04/04 03:10:13;;;;;;;5.80;5.40;;;29.70;99.90;;;;;;5093675;28;20020;-63
2021/04/04 03:12:41;;;;;;;5.88;5.45;;;29.50;99.90;;;;;;5093709;28;20024;-63
2021/04/04 03:15:12;;;;;;;6.05;5.55;;;29.40;99.90;;;;;;5093731;28;20059;-63
2021/04/04 03:17:44;;;;;;;6.20;5.90;;;29.50;99.90;;;;;;5093650;28;20024;-63
2021/04/04 03:20:14;;;;;;;6.20;5.80;;;29.50;99.90;;;;;;5093701;28;20099;-62
2021/04/04 03:22:45;;;;;;;5.57;5.20;;;29.60;99.90;;;;;;5093506;28;20024;-63
2021/04/04 03:25:13;;;;;;;6.40;6.10;;;29.40;99.90;;;;;;5094034;28;20032;-62
2021/04/04 03:27:45;;;;;;;6.57;6.03;;;29.00;99.90;;;;;;5093482;28;20024;-62
2021/04/04 03:33:02;;;;;;;8.30;7.90;;;28.60;99.90;;;;;;5093898;28;20120;-63
2021/04/04 03:35:31;;;;;;;5.60;5.30;;;28.60;99.90;;;;;;5093467;28;20028;-62
2021/04/04 03:38:00;;;;;;;5.63;5.30;;;28.50;99.90;;;;;;5093405;28;20492;-62
2021/04/04 03:40:28;;;;;;;4.18;3.88;;;28.40;99.90;;;;;;5093112;28;20052;-63
2021/04/04 03:42:58;;;;;;;5.70;5.30;;;28.50;99.90;;;;;;5093332;28;20028;-63
2021/04/04 03:45:25;;;;;;;;;;;28.40;99.90;;;;;;5093589;28;20370;-64
2021/04/04 03:47:54;;;;;;;7.78;7.10;;;28.10;99.90;;;;;;5093239;28;19911;-64
2021/04/04 03:50:23;;;;;;;6.43;6.00;;;28.00;99.90;;;;;;5093319;28;20480;-64
2021/04/04 03:52:51;;;;;;;5.40;4.95;;;27.90;99.90;;;;;;5097655;28;20016;-64
2021/04/04 03:55:25;;;;;;;6.18;5.80;;;27.80;99.90;;;;;;5097422;28;20054;-63
2021/04/04 03:57:53;;;;;;;5.63;5.30;;;27.80;99.90;;;;;;5097338;28;20530;-63
2021/04/04 04:00:24;;;;;;;7.32;5.47;;;27.90;99.90;;;;;;5097254;28;20024;-62
2021/04/04 04:02:53;;;;;;;6.72;6.40;;;27.90;99.90;;;;;;5097195;28;20024;-63
2021/04/04 04:05:25;;;;;;;5.60;5.20;;;28.10;99.90;;;;;;5098034;28;20028;-63
2021/04/04 04:07:54;;;;;;;5.78;5.30;;;28.00;99.90;;;;;;5096989;28;20020;-62
2021/04/04 04:10:22;;;;;;;7.65;6.97;;;27.90;99.90;;;;;;5097054;28;20016;-62
2021/04/04 04:12:50;;;;;;;7.40;6.90;;;27.90;99.90;;;;;;5096906;28;20434;-60
2021/04/04 04:15:19;;;;;;;9.38;8.77;;;27.90;99.90;;;;;;5097280;28;20020;-60
2021/04/04 04:17:48;;;;;;;6.82;6.40;;;27.90;99.90;;;;;;5096928;28;20069;-61
2021/04/04 04:20:16;;;;;;;5.45;5.05;;;27.90;99.90;;;;;;5096939;28;20020;-60
2021/04/04 04:22:44;;;;;;;5.68;5.18;;;27.80;99.90;;;;;;5097083;28;20020;-59
2021/04/04 04:25:13;;;;;;;6.40;5.90;;;28.00;99.90;;;;;;5096797;28;20056;-61
2021/04/04 04:27:42;;;;;;;7.25;6.78;;;28.00;99.90;;;;;;5096750;28;20024;-62
2021/04/04 04:30:10;;;;;;;7.57;7.18;;;27.60;99.90;;;;;;5096505;28;20020;-62
2021/04/04 04:32:40;;;;;;;7.75;7.15;;;27.70;99.90;;;;;;5096547;28;20101;-63
2021/04/04 04:35:09;;;;;;;7.25;6.72;;;27.70;99.90;;;;;;5096636;28;20024;-62
2021/04/04 04:37:38;;;;;;;7.50;6.80;;;27.70;99.90;;;;;;5097055;28;20479;-60
2021/04/04 04:40:09;;;;;;;7.88;7.38;;;27.70;99.90;;;;;;5095122;28;20071;-62
2021/04/04 04:42:46;;;;;;;7.38;6.88;;;27.70;99.90;;;;;;5096400;28;20020;-62
2021/04/04 04:45:36;;;;;;;8.88;8.38;;;27.90;99.90;;;;;;5096380;28;20031;-61
2021/04/04 04:48:05;;;;;;;7.97;7.35;;;28.10;99.90;;;;;;5096687;28;20020;-63
2021/04/04 04:50:33;;;;;;;7.88;7.07;;;28.10;99.90;;;;;;5096283;28;20028;-61
2021/04/04 04:53:01;;;;;;;6.95;6.35;;;28.00;99.90;;;;;;5094738;28;20031;-62
2021/04/04 04:55:29;;;;;;;8.02;7.53;;;27.90;99.90;;;;;;5096238;28;20480;-62
2021/04/04 04:57:57;;;;;;;7.43;6.82;;;27.60;99.90;;;;;;5096272;28;20107;-63
2021/04/04 05:00:26;;;;;;;6.55;5.95;;;27.60;99.90;;;;;;5096099;28;20082;-63
2021/04/04 05:02:54;;;;;;;6.50;5.90;;;27.50;99.90;;;;;;5095381;28;20035;-62
2021/04/04 05:05:22;;;;;;;7.85;6.38;;;27.40;99.90;;;;;;5095919;28;20024;-62
2021/04/04 05:07:52;;;;;;;6.63;6.18;;;27.30;99.90;;;;;;5096014;28;20069;-62
2021/04/04 05:10:22;;;;;;;6.80;6.30;;;27.30;99.90;;;;;;5095975;28;20035;-61
2021/04/04 05:12:57;;;;;;;6.03;5.63;;;27.20;99.90;;;;;;5095857;28;20055;-62
2021/04/04 05:15:26;;;;;;;7.00;6.40;;;27.30;99.90;;;;;;5096539;28;20103;-63
2021/04/04 05:17:54;;;;;;;6.20;5.80;;;27.30;99.90;;;;;;5095784;28;20016;-62
2021/04/04 05:20:23;;;;;;;6.72;6.22;;;27.30;99.90;;;;;;5095654;28;20028;-62
2021/04/04 05:22:51;;;;;;;7.07;6.50;;;27.40;99.90;;;;;;5095897;28;20032;-63
2021/04/04 05:25:19;;;;;;;6.82;6.45;;;27.30;99.90;;;;;;5095510;28;20501;-61
2021/04/04 05:27:49;;;;;;;7.60;6.90;;;27.30;99.90;;;;;;5095526;28;20583;-62
2021/04/04 05:30:17;;;;;;;9.43;8.88;;;27.20;99.90;;;;;;5095695;28;20024;-62
2021/04/04 05:32:49;;;;;;;6.30;5.80;;;27.10;99.90;;;;;;5095473;28;20016;-62
2021/04/04 05:35:18;;;;;;;5.47;4.97;;;26.90;99.90;;;;;;5095318;28;20484;-61
2021/04/04 05:37:46;;;;;;;8.93;5.27;;;26.80;99.90;;;;;;5095275;28;20055;-63
2021/04/04 05:40:23;;;;;;;5.88;5.38;;;26.80;99.90;;;;;;5095193;28;20052;-63
2021/04/04 05:43:01;;;;;;;5.13;4.75;;;26.70;99.90;;;;;;5095267;28;20136;-62
2021/04/04 05:45:56;;;;;;;6.03;5.47;;;26.50;99.90;;;;;;5095638;28;20020;-63
2021/04/04 05:48:46;;;;;;;6.32;5.50;;;26.30;99.90;;;;;;5091557;28;20039;-62
2021/04/04 05:51:59;;;;;;;9.52;8.77;;;26.20;99.90;;;;;;5095157;28;20017;-60
2021/04/04 05:54:55;;;;;;;5.53;5.10;;;26.20;99.90;;;;;;5094699;28;20392;-62
2021/04/04 05:57:33;;;;;;;6.93;6.22;;;26.30;99.90;;;;;;5095379;28;20020;-63
2021/04/04 06:00:07;;;;;;;7.10;6.70;;;26.40;99.90;;;;;;5095308;28;20024;-63
2021/04/04 06:02:56;;;;;;;6.35;5.95;;;26.40;99.90;;;;;;5095041;28;20078;-63
2021/04/04 06:05:41;;;;;;;10.25;9.57;;;26.30;99.90;;;;;;5094776;28;20487;-62
2021/04/04 06:08:45;;;;;;;8.68;8.18;;;26.30;99.90;;;;;;5094811;28;20020;-63
2021/04/04 06:11:30;;;;;;;7.22;6.70;;;26.20;99.90;;;;;;5094690;28;20060;-63
2021/04/04 06:14:34;;;;;;;7.22;6.63;;;26.30;99.90;;;;;;5094476;28;20027;-62
2021/04/04 06:17:15;;;;;;;7.20;6.80;;;26.30;99.90;;;;;;5092046;28;20051;-62
2021/04/04 06:20:12;;;;;;;11.25;10.25;;;26.40;99.90;;;;;;5094493;28;20411;-62
2021/04/04 06:23:00;;;;;;;8.70;8.10;;;26.40;99.90;;;;;;5094530;28;20027;-63
2021/04/04 06:25:42;;;;;;;8.27;7.57;;;26.30;99.90;;;;;;5094554;28;20028;-63
2021/04/04 06:28:16;;;;;;;7.05;6.47;;;26.30;99.90;;;;;;5094420;28;20024;-63
2021/04/04 06:31:18;;;;;;;9.52;8.98;;;26.40;99.90;;;;;;5094121;28;20046;-63
2021/04/04 06:34:04;;;;;;;6.50;5.90;;;26.40;99.90;;;;;;5062284;28;20430;-60
2021/04/04 06:36:43;;;;;;;9.57;8.88;;;26.20;99.90;;;;;;5094201;28;20024;-62
2021/04/04 06:39:24;;;;;;;7.88;7.32;;;26.10;99.90;;;;;;5094546;28;20055;-62
2021/04/04 06:41:51;;;;;;;7.50;6.80;;;26.00;99.90;;;;;;5094554;28;20017;-62
2021/04/04 06:44:46;;;;;;;7.35;6.85;;;25.90;99.90;;;;;;5093013;28;20016;-62
2021/04/04 06:48:01;;;;;;;7.50;7.03;;;25.90;99.90;;;;;;5094643;28;20027;-62
2021/04/04 06:50:35;;;;;;;9.05;8.45;;;25.70;99.90;;;;;;5092628;28;20031;-63
2021/04/04 06:53:30;;;;;;;10.80;10.05;;;25.60;99.90;;;;;;5093938;28;20385;-62
2021/04/04 06:56:09;;;;;;;8.05;7.55;;;25.50;99.90;;;;;;5094569;28;20090;-62
2021/04/04 06:59:07;;;;;;;8.65;8.23;;;25.40;99.90;;;;;;5093753;28;20487;-62
2021/04/04 07:01:46;;;;;;;8.93;8.23;;;25.20;99.90;;;;;;5094091;28;20024;-63
2021/04/04 07:04:44;;;;;;;10.00;9.50;;;25.20;99.90;;;;;;5094324;28;20027;-62
2021/04/04 07:07:21;;;;;;;9.05;8.40;;;25.10;99.90;;;;;;5088104;28;20404;-63
2021/04/04 07:10:28;;;;;;;10.25;9.60;;;25.10;99.90;;;;;;5094161;28;20360;-63
2021/04/04 07:13:11;;;;;;;10.38;9.75;;;24.90;99.90;;;;;;5093927;28;20020;-62
2021/04/04 07:16:02;;;;;;;9.15;8.55;;;24.90;99.90;;;;;;5093502;28;20051;-63
2021/04/04 07:19:06;;;;;;;10.27;9.52;;;24.70;99.90;;;;;;5093409;28;20146;-62
2021/04/04 07:22:05;;;;;;;9.60;9.00;;;24.50;99.90;;;;;;5093999;28;20070;-61
2021/04/04 07:25:03;;;;;;;10.15;9.32;;;24.40;99.90;;;;;;5093665;28;20056;-62
2021/04/04 07:27:38;;;;;;;10.40;9.60;;;24.20;99.90;;;;;;5092909;28;20027;-63
2021/04/04 07:30:33;;;;;;;11.77;10.93;;;24.20;99.90;;;;;;5093139;28;20024;-61
2021/04/04 07:33:35;;;;;;;11.13;10.52;;;24.00;99.90;;;;;;5093879;28;20517;-62
2021/04/04 07:36:21;;;;;;;11.73;10.70;;;23.90;99.90;;;;;;5011432;28;20378;-63
2021/04/04 07:39:12;;;;;;;13.30;12.40;;;23.70;99.90;;;;;;5087119;28;20110;-62
2021/04/04 07:41:53;;;;;;;15.30;14.20;;;23.60;99.90;;;;;;5093549;28;20047;-62
2021/04/04 07:44:24;;;;;;;15.43;14.30;;;23.50;99.90;;;;;;5093467;28;20016;-62
2021/04/04 07:47:48;;;;;;;16.42;15.20;;;23.40;99.90;;;;;;5093595;28;20051;-63
2021/04/04 07:50:49;;;;;;;14.85;14.05;;;23.30;99.90;;;;;;5011147;28;20022;-63
2021/04/04 07:53:32;;;;;;;15.98;14.98;;;23.20;99.90;;;;;;4980057;28;20039;-63
2021/04/04 07:56:15;;;;;;;16.40;15.48;;;23.10;99.90;;;;;;5078776;28;20526;-63
2021/04/04 07:58:59;;;;;;;19.77;17.92;;;23.10;99.90;;;;;;5093153;28;20026;-63
2021/04/04 08:02:00;;;;;;;19.65;18.33;;;22.90;99.90;;;;;;5093182;28;20024;-64
2021/04/04 08:04:39;;;;;;;20.33;19.13;;;22.80;99.90;;;;;;5092873;28;20055;-62
2021/04/04 08:07:20;;;;;;;24.23;22.92;;;22.70;99.90;;;;;;5092689;28;20028;-62
2021/04/04 08:10:09;;;;;;;26.00;24.48;;;22.70;99.90;;;;;;5093137;28;20031;-63
2021/04/04 08:13:06;;;;;;;26.33;24.75;;;22.60;99.90;;;;;;5093136;28;20016;-63
2021/04/04 08:16:10;;;;;;;28.85;27.05;;;22.60;99.90;;;;;;5092769;28;20023;-62
2021/04/04 08:18:38;;;;;;;30.48;28.48;;;22.50;99.90;;;;;;5092801;28;20043;-63
2021/04/04 08:21:12;;;;;;;31.85;30.05;;;22.50;99.90;;;;;;5092659;28;20024;-63
2021/04/04 08:24:15;;;;;;;32.78;30.65;;;22.50;99.90;;;;;;5092675;28;20420;-61
2021/04/04 08:26:54;;;;;;;35.65;33.10;;;22.30;99.90;;;;;;5091346;28;20393;-62
2021/04/04 08:29:47;;;;;;;33.53;31.35;;;22.30;99.90;;;;;;5092549;28;20020;-63
2021/04/04 08:32:35;;;;;;;33.88;32.03;;;22.30;99.90;;;;;;5091418;28;20031;-63
2021/04/04 08:35:04;;;;;;;35.85;33.70;;;22.20;99.90;;;;;;5092946;28;20020;-62
2021/04/04 08:37:45;;;;;;;34.30;31.90;;;22.20;99.90;;;;;;5092617;28;20031;-62
2021/04/04 08:40:19;;;;;;;36.63;34.00;;;22.20;99.90;;;;;;5096119;28;20044;-62
2021/04/04 08:42:49;;;;;;;35.40;33.05;;;22.10;99.90;;;;;;5096289;28;20182;-63
2021/04/04 08:45:35;;;;;;;35.65;33.10;;;22.10;99.90;;;;;;5096068;28;20078;-62
2021/04/04 08:48:03;;;;;;;39.92;37.08;;;22.20;99.90;;;;;;5096117;28;20032;-63
2021/04/04 08:50:32;;;;;;;37.80;35.38;;;22.10;99.90;;;;;;5094855;28;20047;-63
2021/04/04 08:53:23;;;;;;;36.72;34.05;;;22.10;99.90;;;;;;5096002;28;20080;-63
2021/04/04 08:55:51;;;;;;;38.03;35.20;;;22.10;99.90;;;;;;5095438;28;20036;-62
2021/04/04 08:58:21;;;;;;;37.60;34.40;;;22.10;99.90;;;;;;5094640;28;20542;-62
2021/04/04 09:00:54;;;;;;;34.00;31.85;;;22.10;99.90;;;;;;5095958;28;20532;-62
2021/04/04 09:03:24;;;;;;;34.10;31.70;;;22.00;99.90;;;;;;5095773;28;20028;-62
2021/04/04 09:06:06;;;;;;;;;;;22.00;99.90;;;;;;5096513;28;20028;-63
2021/04/04 09:08:39;;;;;;;35.92;33.42;;;22.00;99.90;;;;;;5094334;28;19907;-62
2021/04/04 09:11:08;;;;;;;37.92;35.20;;;22.00;99.90;;;;;;5095671;28;20108;-62
2021/04/04 09:13:36;;;;;;;39.55;36.78;;;22.00;99.90;;;;;;5095843;28;20047;-63
2021/04/04 09:16:15;;;;;;;39.40;36.58;;;22.00;99.90;;;;;;5095516;28;20017;-62
2021/04/04 09:18:53;;;;;;;39.47;36.78;;;21.90;99.90;;;;;;5095472;28;20032;-61
2021/04/04 09:21:22;;;;;;;36.80;34.30;;;22.00;99.90;;;;;;5095435;28;20039;-62
2021/04/04 09:23:55;;;;;;;36.20;33.50;;;22.00;99.90;;;;;;5095329;28;20069;-63
2021/04/04 09:26:25;;;;;;;35.72;33.10;;;22.00;99.90;;;;;;5095585;28;20020;-62
2021/04/04 09:28:54;;;;;;;34.53;32.13;;;22.00;99.90;;;;;;5093966;28;20105;-63
2021/04/04 09:31:30;;;;;;;33.97;31.63;;;22.00;99.90;;;;;;5095408;28;20035;-63
2021/04/04 09:34:17;;;;;;;34.38;32.17;;;22.00;99.90;;;;;;5095328;28;20519;-62
2021/04/04 09:36:53;;;;;;;35.40;32.92;;;22.00;99.90;;;;;;5095886;28;20016;-62
2021/04/04 09:39:30;;;;;;;34.17;31.98;;;21.90;99.90;;;;;;5095121;28;20508;-61
2021/04/04 09:41:59;;;;;;;34.70;32.40;;;21.90;99.90;;;;;;5095159;28;20129;-63
2021/04/04 09:44:36;;;;;;;34.47;32.20;;;21.90;99.90;;;;;;5095041;28;20048;-62
2021/04/04 09:47:05;;;;;;;34.67;32.28;;;21.90;99.90;;;;;;5095620;28;20051;-62
2021/04/04 09:49:39;;;;;;;34.70;32.40;;;21.90;99.90;;;;;;5094517;28;20020;-62
2021/04/04 09:52:26;;;;;;;34.92;32.45;;;21.80;99.90;;;;;;5094868;28;20027;-62
2021/04/04 09:55:17;;;;;;;51.63;48.58;;;21.80;99.90;;;;;;5094925;28;20044;-61
2021/04/04 09:57:55;;;;;;;59.63;56.33;;;21.80;99.90;;;;;;5093707;28;20035;-61
2021/04/04 10:00:40;;;;;;;60.78;57.25;;;21.80;99.90;;;;;;5094895;28;20034;-61
2021/04/04 10:03:16;;;;;;;60.08;56.67;;;21.80;99.90;;;;;;5095394;28;20074;-62
2021/04/04 10:05:49;;;;;;;58.67;55.38;;;21.80;99.90;;;;;;5093584;28;20366;-62
2021/04/04 10:08:26;;;;;;;58.97;55.80;;;21.80;99.90;;;;;;5094663;28;20089;-62
2021/04/04 10:10:56;;;;;;;59.03;55.72;;;21.80;99.90;;;;;;5094475;28;20031;-61
2021/04/04 10:13:28;;;;;;;58.90;55.50;;;21.70;99.90;;;;;;5094600;28;20102;-62
2021/04/04 10:15:57;;;;;;;58.15;55.05;;;21.70;99.90;;;;;;5093192;28;20028;-62
2021/04/04 10:19:00;;;;;;;58.05;54.60;;;21.70;99.90;;;;;;5094195;28;20469;-62
2021/04/04 10:21:29;;;;;;;58.58;55.38;;;21.70;99.90;;;;;;5094893;28;20081;-61
2021/04/04 10:23:59;;;;;;;55.15;52.08;;;21.70;99.90;;;;;;5094335;28;20028;-63
2021/04/04 10:26:26;;;;;;;58.92;55.53;;;21.70;99.90;;;;;;5094276;28;20422;-62
2021/04/04 10:29:05;;;;;;;61.53;58.22;;;21.70;99.90;;;;;;5092461;28;20476;-61
2021/04/04 10:31:49;;;;;;;58.47;54.83;;;21.70;99.90;;;;;;5093894;28;20036;-63
2021/04/04 10:34:17;;;;;;;60.47;57.08;;;21.60;99.90;;;;;;5094506;28;20016;-63
2021/04/04 10:37:01;;;;;;;60.17;56.95;;;21.60;99.90;;;;;;5094151;28;20023;-61
2021/04/04 10:39:29;;;;;;;61.28;57.88;;;21.60;99.90;;;;;;5094025;28;20404;-63
2021/04/04 10:41:56;;;;;;;59.00;55.55;;;21.60;99.90;;;;;;5093943;28;20027;-62
2021/04/04 10:44:26;;;;;;;55.95;52.67;;;21.50;99.90;;;;;;5093891;28;20043;-61
2021/04/04 10:47:13;;;;;;;36.88;34.45;;;21.50;99.90;;;;;;5094353;28;20461;-62
2021/04/04 10:49:41;;;;;;;36.85;34.35;;;21.50;99.90;;;;;;5093804;28;20054;-62
2021/04/04 10:52:09;;;;;;;38.88;36.35;;;21.50;99.90;;;;;;5093681;28;20399;-62
2021/04/04 10:54:37;;;;;;;38.03;35.47;;;21.40;99.90;;;;;;5093561;28;20044;-61
2021/04/04 10:57:06;;;;;;;38.05;35.55;;;21.50;99.90;;;;;;5091778;28;20519;-62
2021/04/04 10:59:34;;;;;;;36.03;33.72;;;21.50;99.90;;;;;;5093660;28;20405;-62
2021/04/04 11:02:03;;;;;;;37.05;34.67;;;21.40;99.90;;;;;;5092790;28;20442;-63
2021/04/04 11:04:34;;;;;;;59.97;56.88;;;21.50;99.90;;;;;;5093493;28;20020;-63
2021/04/04 11:07:02;;;;;;;57.97;54.92;;;21.40;99.90;;;;;;5093482;28;20035;-62
2021/04/04 11:09:29;;;;;;;58.22;55.08;;;21.40;99.90;;;;;;5093582;28;20111;-62
2021/04/04 11:12:00;;;;;;;59.47;56.25;;;21.40;99.90;;;;;;5093454;28;20512;-62
2021/04/04 11:14:31;;;;;;;53.50;50.50;;;21.40;99.90;;;;;;5093334;28;20016;-62
2021/04/04 11:17:00;;;;;;;;;;;21.40;99.90;;;;;;5093819;28;20468;-63
2021/04/04 11:19:28;;;;;;;38.53;36.22;;;21.40;99.90;;;;;;5093603;28;19908;-62
2021/04/04 11:22:00;;;;;;;39.40;36.85;;;21.40;99.90;;;;;;5093373;28;20473;-63
2021/04/04 11:24:28;;;;;;;39.28;36.78;;;21.40;99.90;;;;;;5093417;28;20062;-63
2021/04/04 11:26:59;;;;;;;36.67;34.47;;;21.40;99.90;;;;;;5093290;28;20422;-63
2021/04/04 11:29:29;;;;;;;36.03;33.75;;;21.40;99.90;;;;;;5092904;28;20020;-62
2021/04/04 11:32:14;;;;;;;34.63;32.33;;;21.40;99.90;;;;;;5093009;28;20027;-62
2021/04/04 11:34:43;;;;;;;35.42;33.25;;;21.40;99.90;;;;;;5093632;28;20044;-62
2021/04/04 11:37:13;;;;;;;34.80;32.58;;;21.30;99.90;;;;;;5093074;28;20027;-63
2021/04/04 11:40:01;;;;;;;35.47;33.17;;;21.30;99.90;;;;;;5093220;28;20040;-62
2021/04/04 11:42:30;;;;;;;34.17;31.77;;;21.20;99.90;;;;;;5092873;28;20047;-63
2021/04/04 11:44:58;;;;;;;36.00;33.88;;;21.20;99.90;;;;;;5093027;28;20388;-63
2021/04/04 11:47:25;;;;;;;33.63;31.38;;;21.20;99.90;;;;;;5093038;28;20035;-62
2021/04/04 11:49:57;;;;;;;34.88;32.92;;;21.20;99.90;;;;;;5092930;28;20111;-62
2021/04/04 11:52:24;;;;;;;34.45;32.33;;;21.10;99.90;;;;;;5093313;28;20040;-62
2021/04/04 11:54:57;;;;;;;60.60;57.40;;;21.10;99.90;;;;;;5093056;28;20021;-62
2021/04/04 11:57:33;;;;;;;61.35;58.15;;;21.10;99.90;;;;;;5092976;28;20078;-61
2021/04/04 12:00:11;;;;;;;59.97;56.95;;;21.10;99.90;;;;;;5093020;28;20016;-63
2021/04/04 12:02:46;;;;;;;62.58;59.28;;;21.10;99.90;;;;;;5092849;28;20065;-63
2021/04/04 12:05:16;;;;;;;58.42;55.22;;;21.10;99.90;;;;;;5092891;28;20046;-62
2021/04/04 12:08:00;;;;;;;61.08;57.72;;;21.00;99.90;;;;;;5093641;28;20039;-62
2021/04/04 12:10:33;;;;;;;63.08;59.67;;;21.00;99.90;;;;;;5092756;28;20391;-63
2021/04/04 12:13:01;;;;;;;60.67;57.47;;;21.00;99.90;;;;;;5095487;28;20020;-63
2021/04/04 12:15:30;;;;;;;63.00;59.50;;;20.90;99.90;;;;;;5096638;28;20016;-63
2021/04/04 12:18:01;;;;;;;59.47;56.28;;;20.90;99.90;;;;;;5096767;28;20028;-63
2021/04/04 12:20:33;;;;;;;60.78;57.60;;;20.90;99.90;;;;;;5096757;28;20165;-62
2021/04/04 12:23:10;;;;;;;63.92;60.53;;;20.90;99.90;;;;;;5096831;28;20365;-62
2021/04/04 12:25:38;;;;;;;65.13;61.83;;;20.90;99.90;;;;;;5095216;28;20028;-62
2021/04/04 12:28:05;;;;;;;70.85;66.82;;;20.90;99.90;;;;;;5096483;28;20145;-62
2021/04/04 12:30:38;;;;;;;79.45;74.60;;;20.80;99.90;;;;;;5096273;28;20031;-63
2021/04/04 12:33:17;;;;;;;73.75;69.60;;;20.80;99.90;;;;;;5096364;28;20019;-62
2021/04/04 12:35:49;;;;;;;74.57;70.68;;;20.70;99.90;;;;;;5095141;28;20020;-62
2021/04/04 12:38:28;;;;;;;72.13;67.93;;;20.70;99.90;;;;;;5096713;28;20464;-64
2021/04/04 12:40:58;;;;;;;72.63;69.03;;;20.70;99.90;;;;;;5096182;28;20435;-64
2021/04/04 12:43:26;;;;;;;71.30;67.70;;;20.60;99.90;;;;;;5096173;28;20043;-62
2021/04/04 12:45:54;;;;;;;72.55;68.78;;;20.60;99.90;;;;;;5096775;28;20051;-62
2021/04/04 12:48:23;;;;;;;67.20;63.70;;;20.60;99.90;;;;;;5096142;28;20024;-62
2021/04/04 12:51:00;;;;;;;69.10;65.60;;;20.60;99.90;;;;;;5095973;28;20487;-62
2021/04/04 12:53:40;;;;;;;66.57;62.80;;;20.70;99.90;;;;;;5096024;28;20492;-62
2021/04/04 12:56:11;;;;;;;68.30;64.90;;;20.60;99.90;;;;;;5096349;28;20464;-62
2021/04/04 12:58:39;;;;;;;66.18;62.60;;;20.60;99.90;;;;;;5096241;28;20016;-62
2021/04/04 13:01:14;;;;;;;73.07;68.90;;;20.50;99.90;;;;;;5095941;28;20476;-63
2021/04/04 13:03:41;;;;;;;71.88;67.97;;;20.50;99.90;;;;;;5095950;28;20027;-62
2021/04/04 13:06:13;;;;;;;71.90;68.07;;;20.50;99.90;;;;;;5095932;28;20329;-61
2021/04/04 13:08:40;;;;;;;72.25;68.55;;;20.40;99.90;;;;;;5095819;28;20032;-62
2021/04/04 13:11:11;;;;;;;73.07;69.32;;;20.40;99.90;;;;;;5095719;28;20039;-62
2021/04/04 13:13:44;;;;;;;;;;;20.40;99.90;;;;;;5094866;28;20028;-62
2021/04/04 13:16:16;;;;;;;75.15;71.38;;;20.50;99.90;;;;;;5095623;28;20385;-62
2021/04/04 13:18:54;;;;;;;73.60;69.90;;;20.50;99.90;;;;;;5095557;28;20027;-63
2021/04/04 13:21:33;;;;;;;70.30;66.70;;;20.50;99.90;;;;;;5095555;28;20062;-62